Terminal Aerodrome Forecast
Issued by NWS Tulsa, OK

Home | Current Version | Previous Version | Text Only | Print | Product List | Glossary On
Versions: 1 2 3 4 5 6 7 8 9 10 11 12 13
730
FTUS44 KTSA 211140
TAFTUL
TAF
KTUL 211140Z 2112/2212 16015KT P6SM BKN018 WS020/19040KT
     FM211600 17016G25KT P6SM BKN025
     FM212000 17016G27KT P6SM SCT025 BKN035
     FM220100 19015G25KT P6SM VCTS BKN025CB
     FM220200 VRB14G21KT 3SM TSRA BKN025CB
      TEMPO 2202/2204 VRB25G45KT 1SM +TSRA BKN015CB
     FM220400 34014KT 5SM -TSRA BKN025CB
     FM220800 34011KT P6SM BKN120=

USA.gov is the U.S. government's official web portal to all federal, state and local government web resources and services.